createdAt,value
2019-03-11T00:00:57.530Z,44.60
2019-03-11T00:03:25.138Z,45.40
2019-03-11T00:05:53.848Z,47.90
2019-03-11T00:08:24.142Z,49.10
2019-03-11T00:10:52.208Z,50.10
2019-03-11T00:13:22.934Z,50.70
2019-03-11T00:15:50.876Z,51.30
2019-03-11T00:18:19.260Z,51.80
2019-03-11T00:20:49.721Z,52.50
2019-03-11T00:23:18.665Z,54.50
2019-03-11T00:25:47.296Z,54.20
2019-03-11T00:28:16.037Z,54.90
2019-03-11T00:30:44.094Z,54.10
2019-03-11T00:33:11.653Z,54.30
2019-03-11T00:35:39.236Z,54.70
2019-03-11T00:38:06.848Z,55.40
2019-03-11T00:40:34.419Z,56.10
2019-03-11T00:43:02.091Z,55.90
2019-03-11T00:45:29.668Z,55.90
2019-03-11T00:48:02.014Z,50.80
2019-03-11T00:50:26.612Z,48.60
2019-03-11T00:52:54.173Z,44.10
2019-03-11T00:55:21.770Z,44.10
2019-03-11T00:57:49.409Z,41.00
2019-03-11T01:00:27.240Z,39.90
2019-03-11T01:02:54.804Z,38.00
2019-03-11T01:05:22.409Z,36.80
2019-03-11T01:07:50.037Z,36.20
2019-03-11T01:10:17.512Z,35.80
2019-03-11T01:12:45.055Z,36.20
2019-03-11T01:15:12.876Z,36.50
2019-03-11T01:17:43.414Z,36.80
2019-03-11T01:20:11.087Z,37.70
2019-03-11T01:22:38.625Z,38.90
2019-03-11T01:25:06.169Z,39.70
2019-03-11T01:27:33.719Z,40.30
2019-03-11T01:30:04.358Z,39.50
2019-03-11T01:32:31.885Z,41.00
2019-03-11T01:34:59.516Z,41.80
2019-03-11T01:37:27.060Z,41.10
2019-03-11T01:39:54.822Z,39.50
2019-03-11T01:42:22.402Z,39.50
2019-03-11T01:44:50.043Z,39.20
2019-03-11T01:47:20.495Z,39.40
2019-03-11T01:49:48.185Z,39.80
2019-03-11T01:52:15.837Z,40.00
2019-03-11T01:54:43.683Z,40.60
2019-03-11T01:57:11.431Z,41.40
2019-03-11T01:59:39.184Z,41.80
2019-03-11T02:02:07.043Z,41.10
2019-03-11T02:04:34.653Z,41.80
2019-03-11T02:07:02.593Z,42.20
2019-03-11T02:09:30.360Z,42.80
2019-03-11T02:11:58.040Z,42.50
2019-03-11T02:14:25.608Z,43.10
2019-03-11T02:16:53.259Z,42.80
2019-03-11T02:19:21.214Z,42.70
2019-03-11T02:21:49.118Z,43.30
2019-03-11T02:24:16.971Z,43.60
2019-03-11T02:26:44.604Z,43.50
2019-03-11T02:29:12.116Z,43.30
2019-03-11T02:31:39.791Z,43.50
2019-03-11T02:34:07.605Z,43.80
2019-03-11T02:36:35.228Z,43.70
2019-03-11T02:39:04.786Z,43.90
2019-03-11T02:41:32.305Z,44.20
2019-03-11T02:44:08.799Z,44.20
2019-03-11T02:46:36.357Z,44.50
2019-03-11T02:49:04.252Z,43.90
2019-03-11T02:51:32.020Z,44.10
2019-03-11T02:54:00.211Z,44.50
2019-03-11T02:56:27.843Z,44.70
2019-03-11T02:58:55.692Z,44.70
2019-03-11T03:01:41.340Z,44.50
2019-03-11T03:04:19.557Z,45.10
2019-03-11T03:06:49.627Z,45.40
2019-03-11T03:09:17.430Z,45.70
2019-03-11T03:11:45.287Z,45.50
2019-03-11T03:14:12.886Z,45.80
2019-03-11T03:16:40.657Z,46.00
2019-03-11T03:19:08.240Z,46.60
2019-03-11T03:21:36.291Z,46.20
2019-03-11T03:24:03.998Z,46.10
2019-03-11T03:26:31.813Z,46.20
2019-03-11T03:28:59.403Z,46.80
2019-03-11T03:31:26.981Z,46.60
2019-03-11T03:33:54.849Z,46.30
2019-03-11T03:36:22.521Z,46.20
2019-03-11T03:38:50.400Z,46.30
2019-03-11T03:41:18.174Z,46.70
2019-03-11T03:43:45.847Z,46.50
2019-03-11T03:46:19.189Z,46.50
2019-03-11T03:48:42.929Z,46.60
2019-03-11T03:51:10.638Z,45.90
2019-03-11T03:53:38.193Z,46.20
2019-03-11T03:56:06.154Z,46.00
2019-03-11T03:58:33.910Z,45.90
2019-03-11T04:01:01.423Z,45.50
2019-03-11T04:03:29.051Z,44.90
2019-03-11T04:05:56.685Z,45.20
2019-03-11T04:08:24.202Z,44.60
2019-03-11T04:10:51.827Z,43.90
2019-03-11T04:13:19.425Z,43.50
2019-03-11T04:15:47.034Z,43.60
2019-03-11T04:18:14.590Z,43.00
2019-03-11T04:20:42.269Z,42.80
2019-03-11T04:23:10.124Z,42.80
2019-03-11T04:25:37.802Z,42.70
2019-03-11T04:28:05.537Z,42.70
2019-03-11T04:30:33.116Z,41.80
2019-03-11T04:33:00.729Z,41.30
2019-03-11T04:35:28.316Z,41.10
2019-03-11T04:37:55.808Z,41.00
2019-03-11T04:40:23.400Z,41.20
2019-03-11T04:42:50.960Z,41.30
2019-03-11T04:45:18.603Z,41.00
2019-03-11T04:47:46.303Z,41.20
2019-03-11T04:50:13.867Z,40.40
2019-03-11T04:52:41.394Z,40.00
2019-03-11T04:55:09.994Z,39.50
2019-03-11T04:57:40.779Z,39.70
2019-03-11T05:00:09.445Z,39.90
2019-03-11T05:02:37.088Z,40.20
2019-03-11T05:05:04.855Z,40.40
2019-03-11T05:07:33.500Z,39.70
2019-03-11T05:10:01.215Z,39.30
2019-03-11T05:12:29.056Z,39.30
2019-03-11T05:14:56.584Z,38.50
2019-03-11T05:17:24.268Z,37.70
2019-03-11T05:19:51.912Z,37.70
2019-03-11T05:22:19.490Z,37.40
2019-03-11T05:24:47.104Z,36.50
2019-03-11T05:27:14.825Z,36.30
2019-03-11T05:29:42.395Z,35.60
2019-03-11T05:32:09.941Z,34.10
2019-03-11T05:34:37.688Z,34.80
2019-03-11T05:37:05.264Z,33.30
2019-03-11T05:39:32.813Z,33.20
2019-03-11T05:42:00.374Z,32.70
2019-03-11T05:44:28.005Z,32.00
2019-03-11T05:46:55.612Z,31.70
2019-03-11T05:49:23.174Z,31.70
2019-03-11T05:51:51.783Z,31.50
2019-03-11T05:54:19.384Z,31.20
2019-03-11T05:56:47.076Z,30.70
2019-03-11T05:59:14.724Z,30.70
2019-03-11T06:01:42.307Z,30.70
2019-03-11T06:04:09.913Z,31.00
2019-03-11T06:06:37.504Z,31.00
2019-03-11T06:09:06.192Z,30.90
2019-03-11T06:11:33.829Z,31.10
2019-03-11T06:14:01.467Z,31.30
2019-03-11T06:16:29.064Z,31.50
2019-03-11T06:18:56.628Z,31.20
2019-03-11T06:21:44.589Z,31.70
2019-03-11T06:24:12.181Z,32.00
2019-03-11T06:26:39.876Z,32.10
2019-03-11T06:29:07.395Z,32.20
2019-03-11T06:31:34.968Z,31.70
2019-03-11T06:34:02.586Z,31.50
2019-03-11T06:36:30.157Z,31.80
2019-03-11T06:39:05.383Z,31.80
2019-03-11T06:41:27.354Z,32.00
2019-03-11T06:43:55.029Z,31.80
2019-03-11T06:46:22.753Z,31.70
2019-03-11T06:48:50.323Z,31.80
2019-03-11T06:51:17.922Z,31.80
2019-03-11T06:53:45.482Z,31.30
2019-03-11T06:56:13.046Z,31.20
2019-03-11T06:58:40.642Z,31.80
2019-03-11T07:01:08.237Z,31.30
2019-03-11T07:03:35.890Z,30.40
2019-03-11T07:06:03.507Z,30.80
2019-03-11T07:08:31.101Z,30.60
2019-03-11T07:10:58.718Z,30.80
2019-03-11T07:13:26.347Z,30.00
2019-03-11T07:15:53.883Z,30.50
2019-03-11T07:18:21.726Z,31.20
2019-03-11T07:20:49.465Z,30.60
2019-03-11T07:23:17.073Z,30.00
2019-03-11T07:25:44.627Z,30.70
2019-03-11T07:28:12.219Z,30.70
2019-03-11T07:30:40.008Z,31.00
2019-03-11T07:33:07.508Z,31.20
2019-03-11T07:35:35.103Z,31.60
2019-03-11T07:38:02.713Z,31.30
2019-03-11T07:40:30.579Z,31.30
2019-03-11T07:42:58.205Z,30.70
2019-03-11T07:45:25.768Z,31.20
2019-03-11T07:47:53.327Z,31.50
2019-03-11T07:50:20.871Z,31.10
2019-03-11T07:52:48.577Z,31.40
2019-03-11T07:55:16.246Z,30.60
2019-03-11T07:57:43.783Z,31.20
2019-03-11T08:00:12.122Z,30.80
2019-03-11T08:02:39.830Z,30.00
2019-03-11T08:05:07.986Z,29.90
2019-03-11T08:07:35.686Z,29.70
2019-03-11T08:10:03.925Z,29.70
2019-03-11T08:12:31.474Z,29.50
2019-03-11T08:14:59.305Z,29.10
2019-03-11T08:17:26.987Z,28.30
2019-03-11T08:19:54.501Z,28.70
2019-03-11T08:22:22.863Z,28.60
2019-03-11T08:24:56.900Z,28.10
2019-03-11T08:27:32.353Z,27.50
2019-03-11T08:30:03.644Z,27.80
2019-03-11T08:32:39.279Z,28.40
2019-03-11T08:35:07.868Z,27.00
2019-03-11T08:37:44.978Z,27.80
2019-03-11T08:40:29.100Z,27.20
2019-03-11T08:43:06.242Z,27.50
2019-03-11T08:45:36.942Z,27.40
2019-03-11T08:48:09.435Z,26.90
2019-03-11T08:50:38.965Z,27.40
2019-03-11T08:53:06.951Z,27.00
2019-03-11T08:55:35.054Z,26.80
2019-03-11T08:58:02.795Z,26.80
2019-03-11T09:00:56.802Z,27.00
2019-03-11T09:03:24.962Z,26.20
2019-03-11T09:05:58.143Z,26.20
2019-03-11T09:08:27.161Z,26.00
2019-03-11T09:10:55.883Z,26.00
2019-03-11T09:13:24.186Z,25.40
2019-03-11T09:15:53.068Z,26.00
2019-03-11T09:18:23.332Z,25.60
2019-03-11T09:20:51.156Z,25.10
2019-03-11T09:23:18.661Z,24.60
2019-03-11T09:25:46.250Z,25.70
2019-03-11T09:28:14.192Z,24.10
2019-03-11T09:30:42.031Z,24.70
2019-03-11T09:33:09.550Z,24.90
2019-03-11T09:35:37.087Z,24.30
2019-03-11T09:38:05.754Z,24.00
2019-03-11T09:40:33.404Z,24.20
2019-03-11T09:43:01.044Z,24.00
2019-03-11T09:48:06.865Z,23.20
2019-03-11T09:53:34.890Z,23.00
2019-03-11T09:56:04.920Z,23.40
2019-03-11T09:58:33.216Z,23.10
2019-03-11T10:01:01.713Z,22.10
2019-03-11T10:03:29.441Z,20.90
2019-03-11T10:05:57.262Z,21.60
2019-03-11T10:08:24.887Z,21.70
2019-03-11T10:10:52.606Z,22.70
2019-03-11T10:13:20.485Z,21.90
2019-03-11T10:15:48.377Z,22.20
2019-03-11T10:18:16.090Z,22.70
2019-03-11T10:20:43.703Z,22.40
2019-03-11T10:23:11.298Z,22.00
2019-03-11T10:25:40.475Z,22.50
2019-03-11T10:28:08.526Z,22.20
2019-03-11T10:30:36.401Z,21.20
2019-03-11T10:33:04.641Z,21.00
2019-03-11T10:35:37.982Z,20.30
2019-03-11T10:38:08.671Z,19.90
2019-03-11T10:40:36.377Z,21.20
2019-03-11T10:43:04.354Z,20.90
2019-03-11T10:45:38.932Z,20.90
2019-03-11T10:48:06.456Z,22.00
2019-03-11T10:50:34.172Z,21.70
2019-03-11T10:53:01.756Z,21.40
2019-03-11T10:55:29.331Z,21.00
2019-03-11T10:57:56.797Z,20.10
2019-03-11T11:00:25.732Z,20.60
2019-03-11T11:02:53.598Z,21.30
2019-03-11T11:05:21.172Z,20.40
2019-03-11T11:07:49.179Z,20.10
2019-03-11T11:10:17.009Z,20.60
2019-03-11T11:12:44.597Z,20.40
2019-03-11T11:15:14.986Z,20.80
2019-03-11T11:17:42.915Z,21.20
2019-03-11T11:20:11.232Z,21.30
2019-03-11T11:22:38.933Z,20.00
2019-03-11T11:25:08.264Z,20.10
2019-03-11T11:27:36.668Z,20.30
2019-03-11T11:30:05.831Z,19.90
2019-03-11T11:32:33.387Z,20.00
2019-03-11T11:35:00.929Z,20.50
2019-03-11T11:37:28.505Z,20.10
2019-03-11T11:39:56.018Z,19.90
2019-03-11T11:42:23.550Z,19.90
2019-03-11T11:44:51.323Z,19.80
2019-03-11T11:47:25.571Z,20.00
2019-03-11T11:49:53.132Z,19.90
2019-03-11T11:52:20.672Z,20.00
2019-03-11T11:54:48.517Z,20.00
2019-03-11T11:57:16.027Z,20.10
2019-03-11T11:59:53.537Z,19.90
2019-03-11T12:02:13.012Z,18.80
2019-03-11T12:04:40.549Z,19.00
2019-03-11T12:07:08.202Z,18.90
2019-03-11T12:09:35.766Z,18.60
2019-03-11T12:12:05.873Z,18.80
2019-03-11T12:14:32.791Z,18.60
2019-03-11T12:17:00.341Z,18.90
2019-03-11T12:19:27.926Z,19.90
2019-03-11T12:21:55.464Z,20.20
2019-03-11T12:24:23.011Z,20.00
2019-03-11T12:26:53.117Z,20.90
2019-03-11T12:29:24.719Z,22.70
2019-03-11T12:32:06.544Z,25.30
2019-03-11T12:34:36.468Z,28.10
2019-03-11T12:37:06.988Z,29.40
2019-03-11T12:39:36.194Z,29.10
2019-03-11T12:42:07.916Z,28.60
2019-03-11T12:44:35.884Z,27.60
2019-03-11T12:47:05.371Z,31.10
2019-03-11T12:50:05.340Z,29.80
2019-03-11T12:52:39.095Z,36.30
2019-03-11T12:55:06.724Z,40.60
2019-03-11T12:57:38.082Z,38.40
2019-03-11T13:00:13.004Z,37.90
2019-03-11T13:02:41.301Z,37.80
2019-03-11T13:05:09.160Z,38.40
2019-03-11T13:07:38.605Z,38.90
2019-03-11T13:10:07.154Z,36.50
2019-03-11T13:12:35.181Z,36.40
2019-03-11T13:15:04.323Z,36.70
2019-03-11T13:17:40.106Z,37.30
2019-03-11T13:20:10.735Z,37.90
2019-03-11T13:22:38.306Z,37.70
2019-03-11T13:25:06.426Z,36.80
2019-03-11T13:27:33.986Z,38.20
2019-03-11T13:30:01.546Z,37.30
2019-03-11T13:32:29.114Z,37.80
2019-03-11T13:34:56.907Z,38.10
2019-03-11T13:37:25.651Z,37.90
2019-03-11T13:39:53.404Z,37.90
2019-03-11T13:42:21.509Z,38.80
2019-03-11T13:44:49.069Z,39.80
2019-03-11T13:47:16.591Z,38.60
2019-03-11T13:49:44.379Z,38.70
2019-03-11T13:52:12.127Z,37.60
2019-03-11T13:54:40.872Z,38.30
2019-03-11T13:57:08.638Z,37.60
2019-03-11T13:59:36.245Z,37.50
2019-03-11T14:02:04.328Z,38.20
2019-03-11T14:04:31.972Z,38.30
2019-03-11T14:07:27.742Z,39.30
2019-03-11T14:09:58.777Z,38.60
2019-03-11T14:12:37.027Z,38.70
2019-03-11T14:15:05.206Z,38.40
2019-03-11T14:17:37.842Z,38.70
2019-03-11T14:20:05.657Z,39.90
2019-03-11T14:22:33.220Z,38.30
2019-03-11T14:25:00.894Z,37.40
2019-03-11T14:27:28.807Z,38.60
2019-03-11T14:29:57.887Z,37.50
2019-03-11T14:32:26.165Z,37.60
2019-03-11T14:34:56.730Z,37.50
2019-03-11T14:37:30.455Z,37.70
2019-03-11T14:39:58.121Z,38.50
2019-03-11T14:42:26.489Z,37.60
2019-03-11T14:44:54.010Z,38.20
2019-03-11T14:47:21.642Z,38.50
2019-03-11T14:49:49.343Z,38.30
2019-03-11T14:52:17.750Z,37.60
2019-03-11T14:54:45.325Z,39.00
2019-03-11T14:57:12.961Z,38.40
2019-03-11T14:59:40.622Z,38.70
2019-03-11T15:02:08.408Z,38.30
2019-03-11T15:04:38.311Z,38.10
2019-03-11T15:07:11.618Z,38.80
2019-03-11T15:09:50.785Z,39.20
2019-03-11T15:12:14.034Z,37.90
2019-03-11T15:14:42.577Z,39.60
2019-03-11T15:17:12.734Z,38.60
2019-03-11T15:19:41.248Z,39.30
2019-03-11T15:22:16.462Z,39.10
2019-03-11T15:24:48.828Z,40.00
2019-03-11T15:27:16.904Z,39.00
2019-03-11T15:29:45.723Z,38.60
2019-03-11T15:32:14.669Z,38.60
2019-03-11T15:34:42.737Z,38.30
2019-03-11T15:37:38.674Z,39.00
2019-03-11T15:40:08.252Z,38.90
2019-03-11T15:42:37.723Z,39.10
2019-03-11T15:45:15.280Z,38.70
2019-03-11T15:47:44.445Z,38.90
2019-03-11T15:50:17.643Z,38.70
2019-03-11T15:52:46.350Z,38.30
2019-03-11T15:55:16.670Z,39.90
2019-03-11T15:57:47.128Z,38.60
2019-03-11T16:00:19.279Z,38.80
2019-03-11T16:02:53.294Z,38.70
2019-03-11T16:05:40.472Z,40.80
2019-03-11T16:11:12.316Z,40.80
2019-03-11T16:14:48.830Z,39.60
2019-03-11T16:17:21.072Z,39.70
2019-03-11T16:19:58.901Z,39.90
2019-03-11T16:22:48.995Z,39.90
2019-03-11T16:25:28.818Z,40.20
2019-03-11T16:28:18.391Z,40.60
2019-03-11T17:52:40.518Z,36.40
2019-03-11T17:55:13.163Z,36.50
2019-03-11T17:57:41.899Z,36.90
2019-03-11T18:00:28.955Z,37.20
2019-03-11T18:03:20.312Z,36.10
2019-03-11T18:06:11.507Z,37.10
2019-03-11T18:08:44.694Z,37.30
2019-03-11T18:11:13.756Z,37.40
2019-03-11T18:14:15.107Z,37.80
2019-03-11T19:19:31.155Z,39.70
2019-03-11T19:21:58.750Z,41.00
2019-03-11T19:24:26.938Z,41.00
2019-03-11T19:26:55.765Z,41.00
2019-03-11T19:29:23.981Z,41.10
2019-03-11T19:31:52.990Z,41.70
2019-03-11T19:34:56.216Z,41.70
2019-03-11T19:37:54.475Z,42.40
2019-03-11T19:40:27.613Z,42.40
2019-03-11T19:42:55.310Z,46.10
2019-03-11T19:45:23.168Z,42.70
2019-03-11T19:47:50.905Z,43.00
2019-03-11T19:50:18.656Z,42.90
2019-03-11T19:52:57.973Z,43.40
2019-03-11T19:55:17.000Z,43.00
2019-03-11T19:57:54.333Z,43.50
2019-03-11T20:00:30.727Z,43.40
2019-03-11T20:02:58.367Z,43.60
2019-03-11T20:05:26.009Z,43.90
2019-03-11T20:07:53.726Z,43.70
2019-03-11T20:10:21.796Z,43.80
2019-03-11T20:12:49.579Z,44.20
2019-03-11T20:15:17.483Z,44.50
2019-03-11T20:17:46.005Z,45.20
2019-03-11T20:20:15.609Z,46.10
2019-03-11T20:22:43.375Z,47.70
2019-03-11T20:25:13.778Z,47.40
2019-03-11T20:27:41.741Z,49.20
2019-03-11T20:30:12.634Z,49.30
2019-03-11T20:32:40.177Z,50.20
2019-03-11T20:35:07.970Z,51.00
2019-03-11T20:37:35.595Z,50.70
2019-03-11T20:40:04.018Z,51.30
2019-03-11T20:42:34.092Z,51.90
2019-03-11T20:45:01.008Z,51.70
2019-03-11T20:47:28.723Z,52.10
2019-03-11T20:49:59.164Z,52.20
2019-03-11T20:52:28.669Z,52.90
2019-03-11T20:54:59.049Z,52.80
2019-03-11T20:57:27.239Z,53.10
2019-03-11T20:59:55.806Z,53.50
2019-03-11T21:02:34.385Z,53.70
2019-03-11T21:05:02.554Z,54.00
2019-03-11T21:07:30.750Z,54.40
2019-03-11T21:10:02.925Z,54.50
2019-03-11T21:12:30.939Z,54.60
2019-03-11T21:15:07.911Z,55.20
2019-03-11T21:17:35.676Z,55.30
2019-03-11T21:20:05.205Z,55.60
2019-03-11T21:22:32.963Z,56.40
2019-03-11T21:25:00.590Z,55.80
2019-03-11T21:27:28.784Z,56.10
2019-03-11T21:29:57.601Z,56.00
2019-03-11T21:32:25.285Z,55.90
2019-03-11T21:34:52.998Z,57.40
2019-03-11T21:37:20.547Z,56.20
2019-03-11T21:39:51.367Z,56.40
2019-03-11T21:42:46.569Z,57.10
2019-03-11T21:45:14.273Z,57.20
2019-03-11T21:47:42.020Z,57.90
2019-03-11T21:50:13.524Z,58.50
2019-03-11T21:52:41.142Z,57.20
2019-03-11T21:55:09.431Z,57.80
2019-03-11T21:57:37.630Z,57.40
2019-03-11T22:00:09.782Z,56.70
2019-03-11T22:02:37.420Z,56.70
2019-03-11T22:05:06.900Z,57.50
2019-03-11T22:08:03.615Z,57.80
2019-03-11T22:10:31.256Z,56.90
2019-03-11T22:12:58.865Z,57.00
2019-03-11T22:15:41.677Z,57.50
2019-03-11T22:18:09.334Z,58.30
2019-03-11T22:20:37.194Z,59.00
2019-03-11T22:23:05.086Z,58.70
2019-03-11T22:25:33.713Z,58.90
2019-03-11T22:28:01.320Z,58.70
2019-03-11T22:30:30.997Z,59.20
2019-03-11T22:32:58.747Z,59.30
2019-03-11T22:35:28.980Z,59.90
2019-03-11T22:37:55.967Z,59.90
2019-03-11T22:40:24.552Z,59.90
2019-03-11T22:42:52.111Z,59.90
2019-03-11T22:45:27.040Z,60.00
2019-03-11T22:47:54.780Z,60.10
2019-03-11T22:50:22.404Z,60.40
2019-03-11T22:52:50.150Z,60.40
2019-03-11T22:55:19.894Z,60.10
2019-03-11T22:57:48.837Z,60.90
2019-03-11T23:00:50.889Z,61.30
2019-03-11T23:03:18.461Z,60.70
2019-03-11T23:05:57.688Z,60.20
2019-03-11T23:08:15.424Z,61.00
2019-03-11T23:11:07.312Z,61.00
2019-03-11T23:13:35.550Z,60.70
2019-03-11T23:16:03.091Z,61.20
2019-03-11T23:18:40.841Z,61.70
2019-03-11T23:21:08.464Z,62.10
2019-03-11T23:23:35.992Z,62.80
2019-03-11T23:26:03.660Z,63.40
2019-03-11T23:28:32.847Z,63.90
2019-03-11T23:31:01.239Z,64.10
2019-03-11T23:33:28.807Z,65.50
2019-03-11T23:35:56.352Z,65.60
2019-03-11T23:38:23.926Z,66.40
2019-03-11T23:40:51.559Z,67.10
2019-03-11T23:43:19.214Z,67.90
2019-03-11T23:45:48.435Z,68.40
2019-03-11T23:48:30.735Z,69.00
2019-03-11T23:50:58.477Z,69.60
2019-03-11T23:53:26.358Z,70.00
2019-03-11T23:55:55.438Z,70.70
2019-03-11T23:58:23.145Z,71.40
